Time;durP1;ratioP1;P1;durP2;ratioP2;P2;SDS_P1;SDS_P2;PMS_P1;PMS_P2;Temp;Humidity;BMP_temperature;BMP_pressure;BME280_temperature;BME280_humidity;BME280_pressure;Samples;Min_cycle;Max_cycle;Signal;HPM_P1;HPM_P2
2024/04/01 00:00:34;;;;;;;15.55;4.13;;;;;;;8.50;100.00;99236.97;5042390;28;20464;-78
2024/04/01 00:03:00;;;;;;;11.40;4.00;;;;;;;8.46;100.00;99229.09;5043522;28;20044;-70
2024/04/01 00:05:25;;;;;;;11.82;3.60;;;;;;;8.41;100.00;99237.03;5041743;28;20040;-79
2024/04/01 00:07:51;;;;;;;11.82;3.78;;;;;;;8.41;100.00;99230.91;5045586;28;20464;-79
2024/04/01 00:10:20;;;;;;;11.45;3.85;;;;;;;8.40;100.00;99229.16;5037453;28;20112;-76
2024/04/01 00:12:45;;;;;;;12.85;4.20;;;;;;;8.34;100.00;99219.56;5042263;28;20025;-77
2024/04/01 00:15:10;;;;;;;11.98;3.92;;;;;;;8.27;100.00;99226.69;5043046;28;20029;-79
2024/04/01 00:17:36;;;;;;;10.90;3.80;;;;;;;8.24;100.00;99231.09;5042163;28;20032;-78
2024/04/01 00:20:02;;;;;;;13.30;3.75;;;;;;;8.22;100.00;99225.00;5042134;28;20060;-78
2024/04/01 00:22:27;;;;;;;10.50;3.70;;;;;;;8.19;100.00;99220.63;5044945;28;20037;-77
2024/04/01 00:24:52;;;;;;;12.32;3.78;;;;;;;8.15;100.00;99226.81;5042489;28;20399;-79
2024/04/01 00:27:17;;;;;;;12.85;3.65;;;;;;;8.16;100.00;99224.16;5045737;28;20451;-79
2024/04/01 00:29:43;;;;;;;12.98;3.78;;;;;;;8.12;100.00;99230.34;5043331;28;20087;-78
2024/04/01 00:32:08;;;;;;;11.45;3.45;;;;;;;8.12;100.00;99229.47;5042799;28;20026;-69
2024/04/01 00:34:33;;;;;;;12.77;3.80;;;;;;;8.10;100.00;99220.75;5044962;28;20049;-65
2024/04/01 00:36:59;;;;;;;11.98;3.63;;;;;;;8.10;100.00;99221.59;5045769;28;20021;-73
2024/04/01 00:39:24;;;;;;;11.85;3.40;;;;;;;8.08;100.00;99211.97;5047986;28;20294;-71
2024/04/01 00:41:50;;;;;;;10.40;3.53;;;;;;;8.08;100.00;99206.72;5023202;28;20120;-68
2024/04/01 00:44:15;;;;;;;10.45;3.47;;;;;;;8.07;100.00;99200.59;5047804;28;20033;-71
2024/04/01 00:46:40;;;;;;;9.73;3.30;;;;;;;8.03;100.00;99199.72;5045551;28;20037;-68
2024/04/01 00:49:06;;;;;;;12.50;3.40;;;;;;;8.02;100.00;99190.13;5046602;28;20024;-68
2024/04/01 00:51:32;;;;;;;10.35;3.30;;;;;;;7.96;100.00;99186.66;5046514;28;20490;-69
2024/04/01 00:53:58;;;;;;;9.80;3.38;;;;;;;7.95;100.00;99182.28;5044948;28;20385;-69
2024/04/01 00:56:24;;;;;;;10.88;3.53;;;;;;;7.94;100.00;99185.84;5047636;28;20403;-72
2024/04/01 00:58:53;;;;;;;12.38;3.60;;;;;;;7.92;100.00;99177.97;5044589;28;20032;-73
2024/04/01 01:01:19;;;;;;;10.82;3.65;;;;;;;7.90;100.00;99169.19;5040083;28;20052;-72
2024/04/01 01:03:44;;;;;;;12.13;3.63;;;;;;;7.86;100.00;99170.09;5047711;28;20399;-70
2024/04/01 01:06:15;;;;;;;12.05;3.60;;;;;;;7.88;100.00;99178.88;5045284;28;20044;-67
2024/04/01 01:08:44;;;;;;;12.57;3.80;;;;;;;7.87;100.00;99178.91;5046535;28;20030;-65
2024/04/01 01:11:10;;;;;;;10.82;3.67;;;;;;;7.82;100.00;99181.53;5045304;28;20041;-66
2024/04/01 01:13:36;;;;;;;9.38;3.60;;;;;;;7.83;100.00;99193.81;5046167;28;20025;-65
2024/04/01 01:16:01;;;;;;;11.25;3.40;;;;;;;7.79;100.00;99193.00;5046137;28;20437;-65
2024/04/01 01:18:27;;;;;;;9.07;3.40;;;;;;;7.80;100.00;99197.34;5043378;28;20372;-66
2024/04/01 01:20:52;;;;;;;10.60;3.75;;;;;;;7.77;100.00;99191.25;5047538;28;20044;-68
2024/04/01 01:23:17;;;;;;;9.07;3.60;;;;;;;7.73;100.00;99194.81;5022716;28;20469;-69
2024/04/01 01:25:43;;;;;;;10.85;3.60;;;;;;;7.71;100.00;99202.72;5046099;28;20032;-66
2024/04/01 01:28:08;;;;;;;12.60;3.70;;;;;;;7.63;100.00;99204.53;5043738;28;20484;-74
2024/04/01 01:30:37;;;;;;;10.98;3.60;;;;;;;7.61;100.00;99206.31;5045187;28;20059;-70
2024/04/01 01:33:05;;;;;;;10.77;3.67;;;;;;;7.60;100.00;99199.31;5045948;28;20036;-73
2024/04/01 01:35:31;;;;;;;13.50;3.90;;;;;;;7.57;100.00;99200.25;5044798;28;20021;-77
2024/04/01 01:37:58;;;;;;;11.27;3.90;;;;;;;7.56;100.00;99201.13;5045330;28;20041;-78
2024/04/01 01:40:23;;;;;;;13.00;4.30;;;;;;;7.53;100.00;99198.53;5044035;28;20116;-67
2024/04/01 01:42:49;;;;;;;12.10;4.20;;;;;;;7.59;100.00;99205.50;5046790;28;20113;-70
2024/04/01 01:45:14;;;;;;;11.88;3.92;;;;;;;7.51;100.00;99205.53;5043002;28;20033;-68
2024/04/01 01:47:40;;;;;;;11.98;4.10;;;;;;;7.52;100.00;99206.44;5046225;28;20504;-67
2024/04/01 01:50:07;;;;;;;10.68;3.90;;;;;;;7.52;100.00;99206.44;5045264;28;20353;-67
2024/04/01 01:52:33;;;;;;;12.43;4.03;;;;;;;7.51;100.00;99202.91;5044925;28;20037;-71
2024/04/01 01:54:59;;;;;;;10.20;3.63;;;;;;;7.48;100.00;99201.19;5046098;28;20032;-66
2024/04/01 01:57:25;;;;;;;11.10;3.88;;;;;;;7.51;100.00;99202.91;5044413;28;20037;-65
2024/04/01 01:59:50;;;;;;;10.98;3.78;;;;;;;7.53;100.00;99198.53;5047855;28;20029;-78
2024/04/01 02:02:17;;;;;;;10.00;3.92;;;;;;;7.50;100.00;99211.69;5044300;28;20114;-78
2024/04/01 02:04:43;;;;;;;13.05;4.10;;;;;;;7.51;100.00;99216.06;5046373;28;20076;-76
2024/04/01 02:07:08;;;;;;;13.80;4.13;;;;;;;7.50;100.00;99214.34;5044079;28;20535;-77
2024/04/01 02:09:34;;;;;;;11.63;4.20;;;;;;;7.49;100.00;99212.56;5043793;28;20029;-79
2024/04/01 02:12:00;;;;;;;11.43;3.90;;;;;;;7.49;100.00;99215.22;5043707;28;20021;-65
2024/04/01 02:14:25;;;;;;;12.88;4.20;;;;;;;7.48;100.00;99216.97;5045967;28;20044;-66
2024/04/01 02:16:51;;;;;;;10.90;4.30;;;;;;;7.50;100.00;99219.59;5042923;28;20025;-65
2024/04/01 02:19:16;;;;;;;14.15;4.80;;;;;;;7.48;100.00;99210.81;5045927;28;20598;-65
2024/04/01 02:21:45;;;;;;;16.05;5.20;;;;;;;7.49;100.00;99216.06;5042412;28;20503;-65
2024/04/01 02:24:11;;;;;;;15.82;5.65;;;;;;;7.51;100.00;99221.31;5045192;28;20040;-65
2024/04/01 02:26:37;;;;;;;16.58;5.40;;;;;;;7.46;100.00;99217.88;5044180;28;20480;-66
2024/04/01 02:29:04;;;;;;;15.48;5.32;;;;;;;7.46;100.00;99212.59;5042841;28;20045;-67
2024/04/01 02:31:29;;;;;;;16.38;5.20;;;;;;;7.47;100.00;99203.81;5045344;28;20404;-65
2024/04/01 02:33:54;;;;;;;14.32;4.90;;;;;;;7.48;100.00;99210.81;5042619;28;20026;-66
2024/04/01 02:36:20;;;;;;;14.95;4.60;;;;;;;7.48;100.00;99208.19;5046043;28;20077;-66
2024/04/01 02:38:48;;;;;;;14.50;4.88;;;;;;;7.46;100.00;99212.59;5042715;28;20042;-66
2024/04/01 02:41:14;;;;;;;13.23;4.60;;;;;;;7.46;100.00;99220.50;5044100;28;20036;-65
2024/04/01 02:43:40;;;;;;;14.85;4.50;;;;;;;7.43;100.00;99215.28;5042357;28;20379;-70
2024/04/01 02:46:05;;;;;;;15.27;4.60;;;;;;;7.42;100.00;99217.00;5043872;28;20033;-72
2024/04/01 02:48:30;;;;;;;12.60;4.40;;;;;;;7.41;100.00;99223.16;5043352;28;20033;-72
2024/04/01 02:50:56;;;;;;;13.18;4.25;;;;;;;7.44;100.00;99217.00;5042771;28;20079;-67
2024/04/01 02:53:21;;;;;;;13.20;4.10;;;;;;;7.40;100.00;99208.28;5045831;28;20035;-67
2024/04/01 02:55:47;;;;;;;12.20;4.25;;;;;;;7.43;100.00;99207.38;5042112;28;20065;-69
2024/04/01 02:58:12;;;;;;;13.98;4.32;;;;;;;7.30;100.00;99196.97;5044751;28;20037;-71
2024/04/01 03:00:37;;;;;;;13.80;4.38;;;;;;;7.33;100.00;99201.31;5041965;28;20049;-71
2024/04/01 03:03:03;;;;;;;11.98;4.35;;;;;;;7.31;100.00;99198.72;5043376;28;20053;-71
2024/04/01 03:05:28;;;;;;;12.75;4.30;;;;;;;7.29;100.00;99208.34;5044846;28;20090;-72
2024/04/01 03:07:54;;;;;;;12.75;4.22;;;;;;;7.29;100.00;99208.34;5041874;28;20057;-70
2024/04/01 03:10:19;;;;;;;12.07;4.10;;;;;;;7.29;100.00;99210.97;5045183;28;20061;-66
2024/04/01 03:12:47;;;;;;;12.52;4.30;;;;;;;7.30;100.00;99207.47;5041471;28;20066;-67
2024/04/01 03:15:18;;;;;;;11.40;4.05;;;;;;;7.33;100.00;99217.09;5044480;28;20377;-66
2024/04/01 03:17:44;;;;;;;13.40;4.43;;;;;;;7.31;100.00;99214.47;5042363;28;20401;-66
2024/04/01 03:20:12;;;;;;;13.40;4.28;;;;;;;7.29;100.00;99208.34;5043922;28;20060;-67
2024/04/01 03:22:39;;;;;;;12.55;4.30;;;;;;;7.27;100.00;99191.72;5042854;28;20518;-65
2024/04/01 03:25:04;;;;;;;13.75;4.40;;;;;;;7.25;100.00;99198.78;5043209;28;20025;-66
2024/04/01 03:27:30;;;;;;;13.05;4.32;;;;;;;7.24;100.00;99186.50;5044220;28;20040;-67
2024/04/01 03:29:56;;;;;;;13.10;4.30;;;;;;;7.19;100.00;99193.53;5041632;28;20029;-69
2024/04/01 03:32:21;;;;;;;14.00;4.57;;;;;;;7.17;100.00;99197.94;5045350;28;20033;-69
2024/04/01 03:34:48;;;;;;;13.68;4.45;;;;;;;7.13;100.00;99194.47;5044963;28;20436;-70
2024/04/01 03:37:14;;;;;;;12.25;4.28;;;;;;;7.09;100.00;99194.50;5042383;28;20487;-69
2024/04/01 03:39:44;;;;;;;12.85;4.40;;;;;;;7.07;100.00;99196.28;5044297;28;20044;-70
2024/04/01 03:42:13;;;;;;;12.45;4.40;;;;;;;7.09;100.00;99194.50;5045218;28;20025;-73
2024/04/01 03:44:39;;;;;;;15.90;4.80;;;;;;;7.07;100.00;99193.66;5043029;28;20029;-71
2024/04/01 03:47:05;;;;;;;13.52;4.65;;;;;;;7.04;100.00;99194.53;5043071;28;20036;-71
2024/04/01 03:49:30;;;;;;;10.98;4.45;;;;;;;7.05;100.00;99195.41;5044707;28;20025;-72
2024/04/01 03:51:55;;;;;;;12.30;4.30;;;;;;;7.00;100.00;99198.06;5042133;28;20472;-73
2024/04/01 03:54:21;;;;;;;14.02;4.70;;;;;;;6.96;100.00;99199.84;5045056;28;20083;-74
2024/04/01 03:56:48;;;;;;;13.15;4.30;;;;;;;6.94;100.00;99204.22;5042564;28;20068;-74
2024/04/01 03:59:14;;;;;;;12.93;4.45;;;;;;;6.94;100.00;99208.63;5044482;28;20489;-71
2024/04/01 04:01:40;;;;;;;13.57;4.65;;;;;;;6.94;100.00;99217.38;5042584;28;20061;-71
2024/04/01 04:04:05;;;;;;;13.23;4.60;;;;;;;6.96;100.00;99210.38;5043547;28;20084;-66
2024/04/01 04:06:30;;;;;;;12.68;4.40;;;;;;;6.98;100.00;99211.22;5044292;28;20116;-67
2024/04/01 04:08:57;;;;;;;11.18;4.38;;;;;;;6.99;100.00;99201.59;5040633;28;20071;-69
2024/04/01 04:11:22;;;;;;;12.50;4.60;;;;;;;6.98;100.00;99210.34;5045663;28;20037;-69
2024/04/01 04:13:48;;;;;;;12.75;4.60;;;;;;;6.95;100.00;99206.00;5041554;28;20040;-71
2024/04/01 04:16:13;;;;;;;13.13;4.60;;;;;;;6.91;100.00;99203.41;5044392;28;20064;-70
2024/04/01 04:18:38;;;;;;;12.75;4.70;;;;;;;6.86;100.00;99200.81;5042242;28;20032;-67
2024/04/01 04:21:09;;;;;;;14.30;4.95;;;;;;;6.86;100.00;99211.31;5041906;28;20114;-67
2024/04/01 04:23:34;;;;;;;14.85;5.00;;;;;;;6.88;100.00;99216.56;5042882;28;20104;-69
2024/04/01 04:26:00;;;;;;;14.65;5.05;;;;;;;6.92;100.00;99221.78;5041454;28;20133;-65
2024/04/01 04:28:25;;;;;;;14.32;5.15;;;;;;;6.93;100.00;99213.03;5044027;28;20033;-66
2024/04/01 04:30:50;;;;;;;15.75;5.20;;;;;;;6.94;100.00;99214.75;5039534;28;20079;-67
2024/04/01 04:33:16;;;;;;;14.68;5.00;;;;;;;6.91;100.00;99216.53;5042617;28;20094;-66
2024/04/01 04:35:41;;;;;;;13.23;4.80;;;;;;;6.90;100.00;99215.69;5041752;28;20059;-66
2024/04/01 04:38:08;;;;;;;12.63;4.95;;;;;;;6.90;100.00;99212.16;5042400;28;20116;-66
2024/04/01 04:40:33;;;;;;;14.77;4.90;;;;;;;6.88;100.00;99217.41;5042797;28;20048;-65
2024/04/01 04:42:59;;;;;;;13.55;5.05;;;;;;;6.88;100.00;99221.81;5040995;28;20037;-71
2024/04/01 04:45:24;;;;;;;12.68;4.85;;;;;;;6.87;100.00;99227.94;5042843;28;20068;-70
2024/04/01 04:47:50;;;;;;;12.57;4.68;;;;;;;6.87;100.00;99223.53;5040506;28;20057;-65
2024/04/01 04:50:16;;;;;;;13.48;4.68;;;;;;;6.89;100.00;99218.31;5043365;28;20499;-71
2024/04/01 04:52:41;;;;;;;13.98;4.82;;;;;;;6.91;100.00;99216.53;5041753;28;20021;-71
2024/04/01 04:55:07;;;;;;;13.05;4.65;;;;;;;6.92;100.00;99226.16;5041891;28;20460;-66
2024/04/01 04:57:33;;;;;;;14.00;4.40;;;;;;;6.89;100.00;99221.78;5043262;28;20057;-69
2024/04/01 04:59:58;;;;;;;14.18;4.63;;;;;;;6.93;100.00;99223.53;5040778;28;20029;-66
2024/04/01 05:02:23;;;;;;;14.05;4.70;;;;;;;6.91;100.00;99220.03;5043624;28;20103;-69
2024/04/01 05:04:49;;;;;;;14.40;4.80;;;;;;;6.88;100.00;99217.41;5040667;28;20033;-72
2024/04/01 05:07:15;;;;;;;16.08;4.80;;;;;;;6.92;100.00;99226.16;5043030;28;20033;-65
2024/04/01 05:09:40;;;;;;;12.70;4.75;;;;;;;6.94;100.00;99222.63;5041659;28;20040;-66
2024/04/01 05:12:06;;;;;;;14.43;4.80;;;;;;;6.93;100.00;99222.63;5042055;28;20461;-69
2024/04/01 05:14:32;;;;;;;13.93;5.00;;;;;;;6.95;100.00;99213.88;5042877;28;20029;-67
2024/04/01 05:16:57;;;;;;;14.98;5.10;;;;;;;6.96;100.00;99220.88;5040532;28;20071;-69
2024/04/01 05:19:22;;;;;;;15.07;5.03;;;;;;;6.98;100.00;99220.88;5043827;28;20078;-66
2024/04/01 05:21:50;;;;;;;13.23;5.10;;;;;;;7.00;100.00;99223.47;5042976;28;20029;-66
2024/04/01 05:24:16;;;;;;;17.60;5.25;;;;;;;6.97;100.00;99213.84;5046597;28;20166;-66
2024/04/01 05:26:42;;;;;;;15.20;5.47;;;;;;;7.03;100.00;99224.31;5045074;28;20113;-66
2024/04/01 05:29:08;;;;;;;15.45;5.60;;;;;;;7.04;100.00;99226.06;5045347;28;20030;-65
2024/04/01 05:31:37;;;;;;;15.45;5.40;;;;;;;7.07;100.00;99233.94;5046162;28;20033;-66
2024/04/01 05:34:03;;;;;;;14.80;5.20;;;;;;;7.10;100.00;99235.66;5044711;28;20024;-65
2024/04/01 05:36:28;;;;;;;13.70;4.85;;;;;;;7.10;100.00;99233.91;5046891;28;20040;-71
2024/04/01 05:38:54;;;;;;;16.30;5.20;;;;;;;7.14;100.00;99242.66;5043771;28;20028;-66
2024/04/01 05:41:21;;;;;;;13.15;4.82;;;;;;;7.17;100.00;99247.88;5045962;28;20460;-68
2024/04/01 05:43:46;;;;;;;14.57;4.82;;;;;;;7.19;100.00;99254.00;5044199;28;20033;-69
2024/04/01 05:46:11;;;;;;;14.82;5.00;;;;;;;7.23;100.00;99255.72;5045427;28;20034;-66
2024/04/01 05:48:37;;;;;;;13.20;4.93;;;;;;;7.28;100.00;99264.47;5045383;28;20036;-66
2024/04/01 05:51:02;;;;;;;13.93;5.00;;;;;;;7.31;100.00;99267.06;5044227;28;20152;-72
2024/04/01 05:53:28;;;;;;;14.25;4.93;;;;;;;7.35;100.00;99273.16;5045336;28;20472;-67
2024/04/01 05:55:53;;;;;;;12.40;4.50;;;;;;;7.39;100.00;99263.50;5043369;28;20104;-66
2024/04/01 05:58:18;;;;;;;14.25;4.90;;;;;;;7.42;100.00;99274.84;5046358;28;20106;-67
2024/04/01 06:00:44;;;;;;;14.13;4.57;;;;;;;7.46;100.00;99271.31;5044215;28;20078;-69
2024/04/01 06:03:09;;;;;;;13.38;4.72;;;;;;;7.49;100.00;99273.06;5043519;28;20049;-67
2024/04/01 06:05:34;;;;;;;13.25;4.50;;;;;;;7.52;100.00;99278.28;5045228;28;20037;-67
2024/04/01 06:08:00;;;;;;;10.45;4.40;;;;;;;7.54;100.00;99278.28;5043775;28;20037;-66
2024/04/01 06:10:28;;;;;;;14.70;4.70;;;;;;;7.54;100.00;99283.53;5046282;28;20060;-69
2024/04/01 06:12:54;;;;;;;13.75;4.72;;;;;;;7.54;100.00;99280.91;5039338;28;20033;-65
2024/04/01 06:15:20;;;;;;;11.55;4.43;;;;;;;7.56;100.00;99292.25;5046234;28;20032;-66
2024/04/01 06:17:45;;;;;;;14.63;4.97;;;;;;;7.57;100.00;99284.41;5043519;28;20068;-66
2024/04/01 06:20:10;;;;;;;15.73;4.80;;;;;;;7.59;100.00;99281.75;5044778;28;20495;-66
2024/04/01 06:22:37;;;;;;;13.98;4.65;;;;;;;7.60;100.00;99284.38;5044760;28;20044;-65
2024/04/01 06:25:03;;;;;;;13.70;4.70;;;;;;;7.62;100.00;99279.94;5043557;28;20024;-66
2024/04/01 06:27:29;;;;;;;12.32;4.70;;;;;;;7.65;100.00;99276.44;5045612;28;20479;-65
2024/04/01 06:29:55;;;;;;;14.43;4.82;;;;;;;7.69;100.00;99286.03;5043006;28;20080;-65
2024/04/01 06:32:20;;;;;;;13.90;4.68;;;;;;;7.71;100.00;99291.28;5045886;28;20033;-67
2024/04/01 06:34:50;;;;;;;15.75;5.13;;;;;;;7.72;100.00;99286.00;5043258;28;20036;-66
2024/04/01 06:37:15;;;;;;;14.07;4.75;;;;;;;7.75;100.00;99293.00;5046804;28;20488;-65
2024/04/01 06:39:40;;;;;;;13.38;4.72;;;;;;;7.77;100.00;99286.81;5044431;28;20057;-66
2024/04/01 06:42:06;;;;;;;15.32;5.18;;;;;;;7.78;100.00;99292.97;5044326;28;20064;-70
2024/04/01 06:44:31;;;;;;;13.30;4.80;;;;;;;7.80;100.00;99294.69;5043272;28;20057;-69
2024/04/01 06:46:56;;;;;;;15.10;5.13;;;;;;;7.81;100.00;99300.84;5045546;28;20036;-70
2024/04/01 06:49:22;;;;;;;13.77;4.88;;;;;;;7.81;100.00;99298.22;5042444;28;20025;-71
2024/04/01 06:51:47;;;;;;;16.60;5.22;;;;;;;7.82;100.00;99300.81;5045092;28;20078;-68
2024/04/01 06:54:13;;;;;;;16.08;5.20;;;;;;;7.83;100.00;99306.94;5043247;28;20029;-66
2024/04/01 06:56:38;;;;;;;16.17;5.50;;;;;;;7.86;100.00;99306.91;5043743;28;20022;-66
2024/04/01 06:59:03;;;;;;;15.85;5.50;;;;;;;7.84;100.00;99303.44;5044496;28;20433;-67
2024/04/01 07:01:29;;;;;;;16.38;5.60;;;;;;;7.85;100.00;99299.94;5042135;28;20468;-67
2024/04/01 07:03:55;;;;;;;15.25;5.40;;;;;;;7.88;100.00;99306.91;5044739;28;20104;-67
2024/04/01 07:06:20;;;;;;;16.33;6.07;;;;;;;7.89;100.00;99309.53;5041967;28;20029;-72
2024/04/01 07:08:45;;;;;;;17.10;5.90;;;;;;;7.89;100.00;99311.28;5044392;28;20041;-68
2024/04/01 07:11:11;;;;;;;17.45;5.90;;;;;;;7.91;100.00;99310.41;5043497;28;20052;-66
2024/04/01 07:13:36;;;;;;;17.42;6.38;;;;;;;7.94;100.00;99320.03;5043229;28;20524;-73
2024/04/01 07:16:01;;;;;;;17.95;6.22;;;;;;;7.94;100.00;99325.28;5044761;28;20074;-71
2024/04/01 07:18:28;;;;;;;17.05;6.13;;;;;;;7.95;100.00;99333.16;5042513;28;20025;-75
2024/04/01 07:20:54;;;;;;;17.60;6.40;;;;;;;8.03;100.00;99322.56;5038721;28;20476;-68
2024/04/01 07:23:19;;;;;;;17.33;6.43;;;;;;;8.03;100.00;99336.59;5044825;28;20041;-68
2024/04/01 07:25:46;;;;;;;16.65;6.20;;;;;;;8.08;100.00;99338.31;5041478;28;20021;-67
2024/04/01 07:28:11;;;;;;;16.70;6.00;;;;;;;8.12;100.00;99334.75;5042037;28;20380;-66
2024/04/01 07:30:36;;;;;;;17.02;6.57;;;;;;;8.11;100.00;99339.16;5043384;28;20033;-65
2024/04/01 07:33:02;;;;;;;17.55;6.30;;;;;;;8.17;100.00;99338.25;5043276;28;20044;-65
2024/04/01 07:35:27;;;;;;;18.25;6.38;;;;;;;8.17;100.00;99348.78;5045563;28;20021;-67
2024/04/01 07:37:53;;;;;;;17.48;6.32;;;;;;;8.17;100.00;99338.25;5042468;28;20459;-68
2024/04/01 07:40:18;;;;;;;18.17;6.32;;;;;;;8.19;100.00;99347.84;5044959;28;20028;-66
2024/04/01 07:42:45;;;;;;;17.90;6.35;;;;;;;8.19;100.00;99347.84;5040996;28;20040;-66
2024/04/01 07:45:14;;;;;;;17.15;6.25;;;;;;;8.22;100.00;99361.88;5044363;28;20120;-66
2024/04/01 07:47:40;;;;;;;17.92;6.75;;;;;;;8.23;100.00;99353.06;5041666;28;20480;-66
2024/04/01 07:50:06;;;;;;;17.90;6.80;;;;;;;8.25;100.00;99341.66;5043844;28;20022;-66
2024/04/01 07:52:31;;;;;;;18.13;6.80;;;;;;;8.28;100.00;99356.53;5043016;28;20083;-66
2024/04/01 07:55:00;;;;;;;18.00;6.80;;;;;;;8.32;100.00;99359.13;5042314;28;20436;-66
2024/04/01 07:57:30;;;;;;;17.38;6.53;;;;;;;8.37;100.00;99352.06;5043628;28;20072;-67
2024/04/01 07:59:59;;;;;;;18.50;7.40;;;;;;;8.43;100.00;99361.66;5042300;28;20029;-66
2024/04/01 08:02:26;;;;;;;18.70;7.78;;;;;;;8.49;100.00;99360.72;5043288;28;20060;-66
2024/04/01 08:04:52;;;;;;;18.75;7.82;;;;;;;8.50;100.00;99367.75;5041261;28;20038;-66
2024/04/01 08:07:17;;;;;;;18.42;7.97;;;;;;;8.54;100.00;99369.47;5044508;28;20029;-66
2024/04/01 08:09:42;;;;;;;18.58;7.93;;;;;;;8.56;100.00;99372.94;5040867;28;20065;-65
2024/04/01 08:12:08;;;;;;;19.67;8.30;;;;;;;8.59;100.00;99385.22;5043794;28;20116;-66
2024/04/01 08:14:34;;;;;;;20.05;8.50;;;;;;;8.60;100.00;99386.97;5042119;28;20029;-70
2024/04/01 08:17:00;;;;;;;19.73;8.50;;;;;;;8.67;100.00;99397.41;5042394;28;20107;-65
2024/04/01 08:19:27;;;;;;;19.23;8.43;;;;;;;8.68;100.00;99393.91;5043378;28;20040;-66
2024/04/01 08:21:53;;;;;;;19.17;8.45;;;;;;;8.72;100.00;99395.63;5041481;28;20029;-65
2024/04/01 08:24:18;;;;;;;18.77;7.82;;;;;;;8.77;100.00;99392.06;5044226;28;20040;-66
2024/04/01 08:26:44;;;;;;;18.50;7.70;;;;;;;8.86;100.00;99394.59;5036891;28;20053;-65
2024/04/01 08:29:09;;;;;;;19.60;7.80;;;;;;;8.90;100.00;99394.53;5043967;28;20033;-66
2024/04/01 08:31:35;;;;;;;18.50;7.72;;;;;;;9.05;100.00;99408.41;5041774;28;20033;-65
2024/04/01 08:34:00;;;;;;;19.88;8.20;;;;;;;9.12;100.00;99419.78;5042180;28;20178;-66
2024/04/01 08:36:25;;;;;;;19.05;7.65;;;;;;;9.25;100.00;99430.13;5042127;28;20068;-66
2024/04/01 08:38:50;;;;;;;18.25;7.30;;;;;;;9.37;100.00;99430.88;5039528;28;20057;-65
2024/04/01 08:41:32;;;;;;;18.20;7.55;;;;;;;9.38;100.00;99436.13;5042750;28;20112;-68
2024/04/01 08:44:16;;;;;;;19.23;7.90;;;;;;;9.31;100.00;99442.38;5039876;28;20108;-70
2024/04/01 08:46:48;;;;;;;17.98;7.30;;;;;;;9.25;100.00;99438.03;5039753;28;20116;-66
2024/04/01 08:49:14;;;;;;;18.80;7.30;;;;;;;9.17;100.00;99431.13;5044031;28;20025;-67
2024/04/01 08:51:41;;;;;;;17.50;6.88;;;;;;;9.08;100.00;99438.22;5041003;28;20029;-66
2024/04/01 08:54:08;;;;;;;18.40;7.30;;;;;;;9.01;100.00;99438.34;5042910;28;20026;-69
2024/04/01 08:56:39;;;;;;;17.80;7.38;;;;;;;8.93;100.00;99443.69;5045743;28;20460;-68
2024/04/01 08:59:04;;;;;;;18.90;7.40;;;;;;;8.91;100.00;99450.72;5046533;28;20033;-67
2024/04/01 09:01:30;;;;;;;18.20;7.28;;;;;;;8.90;100.00;99452.50;5046059;28;20523;-66
2024/04/01 09:03:55;;;;;;;18.55;6.93;;;;;;;8.87;100.00;99451.69;5044632;28;20036;-65
2024/04/01 09:06:21;;;;;;;18.55;7.50;;;;;;;8.79;100.00;99461.41;5047640;28;20115;-68
2024/04/01 09:08:48;;;;;;;18.52;7.28;;;;;;;8.72;100.00;99460.59;5044660;28;20119;-66
2024/04/01 09:11:13;;;;;;;18.38;7.22;;;;;;;8.67;100.00;99463.28;5044459;28;20029;-66
2024/04/01 09:13:39;;;;;;;18.42;7.55;;;;;;;8.66;100.00;99469.44;5046820;28;20163;-65
2024/04/01 09:16:05;;;;;;;19.23;8.13;;;;;;;8.65;100.00;99474.72;5045547;28;20041;-72
2024/04/01 09:18:36;;;;;;;18.85;8.32;;;;;;;8.61;100.00;99466.00;5044870;28;20029;-72
2024/04/01 09:21:02;;;;;;;19.13;8.52;;;;;;;8.62;100.00;99472.13;5045773;28;20057;-69
2024/04/01 09:23:30;;;;;;;19.45;8.80;;;;;;;8.63;100.00;99480.00;5045623;28;20033;-70
2024/04/01 09:26:00;;;;;;;20.67;9.50;;;;;;;8.61;100.00;99481.78;5045482;28;20025;-68
2024/04/01 09:28:26;;;;;;;19.92;9.32;;;;;;;8.61;100.00;99476.53;5045069;28;20032;-65
2024/04/01 09:30:52;;;;;;;19.77;9.18;;;;;;;8.61;100.00;99476.53;5046840;28;20515;-67
2024/04/01 09:33:18;;;;;;;20.67;9.32;;;;;;;8.67;100.00;99475.59;5043952;28;20053;-74
2024/04/01 09:35:43;;;;;;;20.73;9.40;;;;;;;8.71;100.00;99478.19;5047060;28;20044;-66
2024/04/01 09:38:09;;;;;;;20.85;10.43;;;;;;;8.75;100.00;99480.78;5042997;28;20087;-65
2024/04/01 09:40:35;;;;;;;19.83;9.93;;;;;;;8.81;100.00;99483.34;5045024;28;20029;-66
2024/04/01 09:43:01;;;;;;;20.38;10.15;;;;;;;8.84;100.00;99491.22;5044943;28;20045;-68
2024/04/01 09:45:28;;;;;;;21.38;10.02;;;;;;;8.87;100.00;99493.84;5045850;28;20037;-65
2024/04/01 09:47:53;;;;;;;20.23;9.77;;;;;;;8.95;100.00;99494.63;5044187;28;20052;-68
2024/04/01 09:50:20;;;;;;;22.38;10.40;;;;;;;9.03;100.00;99494.56;5045555;28;20053;-66
2024/04/01 09:52:46;;;;;;;20.75;9.60;;;;;;;9.12;100.00;99496.22;5039682;28;20538;-65
2024/04/01 09:55:24;;;;;;;20.00;9.40;;;;;;;9.14;100.00;99492.66;5045107;28;20033;-65
2024/04/01 09:58:07;;;;;;;19.92;9.18;;;;;;;9.15;100.00;99491.78;5040293;28;20383;-66
2024/04/01 10:00:52;;;;;;;21.42;9.68;;;;;;;9.17;100.00;99486.47;5045252;28;20119;-64
2024/04/01 10:03:48;;;;;;;20.70;9.77;;;;;;;9.19;100.00;99496.13;5039910;28;20037;-65
2024/04/01 10:06:37;;;;;;;21.45;9.98;;;;;;;9.28;100.00;99505.69;5045818;28;20065;-66
2024/04/01 10:09:12;;;;;;;21.45;10.00;;;;;;;9.28;100.00;99510.13;5042596;28;20053;-76
2024/04/01 10:11:46;;;;;;;22.25;10.18;;;;;;;9.27;100.00;99511.84;5044350;28;20047;-66
2024/04/01 10:14:34;;;;;;;21.40;10.32;;;;;;;9.26;100.00;99507.47;5046111;28;20061;-74
2024/04/01 10:17:12;;;;;;;21.90;9.98;;;;;;;9.28;100.00;99507.47;5039673;28;20088;-67
2024/04/01 10:19:56;;;;;;;21.63;9.93;;;;;;;9.32;100.00;99517.97;5042991;28;20866;-66
2024/04/01 10:23:04;;;;;;;21.05;9.15;;;;;;;9.31;100.00;99517.97;5040327;28;20041;-69
2024/04/01 10:25:41;;;;;;;20.73;9.15;;;;;;;9.30;100.00;99511.81;5039566;28;20053;-68
2024/04/01 10:28:52;;;;;;;21.15;9.40;;;;;;;9.42;100.00;99522.25;5044105;28;20388;-65
2024/04/01 10:31:39;;;;;;;21.90;9.70;;;;;;;9.54;100.00;99523.84;5042808;28;20040;-67
2024/04/01 10:34:38;;;;;;;20.90;8.75;;;;;;;9.60;100.00;99504.44;5043016;28;20026;-69
2024/04/01 10:37:09;;;;;;;20.90;9.40;;;;;;;9.63;100.00;99512.31;5043001;28;20033;-65
2024/04/01 10:39:57;;;;;;;20.92;8.88;;;;;;;9.64;100.00;99505.25;5043950;28;20028;-65
2024/04/01 10:42:42;;;;;;;21.73;9.48;;;;;;;9.61;100.00;99514.09;5036407;28;20111;-68
2024/04/01 10:45:32;;;;;;;20.58;9.10;;;;;;;9.60;100.00;99515.00;5043636;28;20439;-66
2024/04/01 10:48:00;;;;;;;20.50;9.00;;;;;;;9.70;100.00;99519.25;5040986;28;20030;-67
2024/04/01 10:50:56;;;;;;;20.73;8.70;;;;;;;9.84;100.00;99529.59;5045016;28;20025;-67
2024/04/01 10:53:43;;;;;;;20.23;8.30;;;;;;;9.93;100.00;99528.59;5039154;28;20029;-66
2024/04/01 10:56:35;;;;;;;20.00;8.10;;;;;;;10.01;100.00;99526.75;5042976;28;20033;-67
2024/04/01 10:59:46;;;;;;;20.58;7.88;;;;;;;10.04;100.00;99542.53;5041997;28;20441;-67
2024/04/01 11:02:30;;;;;;;19.75;7.97;;;;;;;10.18;100.00;99546.75;5044111;28;20072;-66
2024/04/01 11:05:19;;;;;;;20.33;8.25;;;;;;;10.42;100.00;99543.75;5043583;28;20029;-65
2024/04/01 11:08:04;;;;;;;20.80;7.63;;;;;;;10.63;100.00;99542.56;5044682;28;20104;-66
2024/04/01 11:10:53;;;;;;;19.35;7.38;;;;;;;10.71;100.00;99563.56;5041103;28;20029;-67
2024/04/01 11:13:22;;;;;;;19.08;7.30;;;;;;;10.58;100.00;99557.59;5017315;28;20022;-65
2024/04/01 11:15:53;;;;;;;17.98;6.78;;;;;;;10.70;100.00;99571.53;5037932;28;20076;-68
2024/04/01 11:18:33;;;;;;;17.98;6.70;;;;;;;10.82;100.00;99561.63;5037038;28;20175;-66
2024/04/01 11:21:16;;;;;;;18.45;6.53;;;;;;;11.14;100.00;99570.75;5040511;28;20393;-66
2024/04/01 11:23:57;;;;;;;18.90;6.53;;;;;;;11.44;100.00;99565.78;5041925;28;20045;-67
2024/04/01 11:26:42;;;;;;;18.77;6.32;;;;;;;11.76;100.00;99571.34;5038639;28;20034;-67
2024/04/01 11:29:45;;;;;;;17.10;5.90;;;;;;;11.88;100.00;99564.91;5042511;28;20025;-66